Airfield :
LOGIN :

Register | Disclaimer

   EN    FR    IT 

 










Legend :    VFR   Marginal VFR   IFR   Intensive IFR   Very Intensive IFR
Visi :
Ceiling :
>= 8 km
>= 3000ft
5 to 8 km
1000 to 3000 ft
1500m to 5 km
500 to 1000 ft
800 to 1500m
200 to 500 ft
< 800m
< 200 ft
Symbols :   Thunderstorms  Fog  Heavy snow  Heavy precipitations  Wind > 20 kt
SIGMETs :     Misc.  Thunderstorms  Icing  Turbulence  Mountain Waves  Volcanic Ashes






- Airport Elevation : 1521 ft
- IATA code : NCY


LFLP - Annecy

CURRENT METAR :
  • 190130Z AUTO 05003KT 2600 1100 R04/2600U BR OVC003 M05/M05 Q1026

EXPIRED METARs :
  • 190100Z AUTO 00000KT 0350 R04/0400N FZFG VV/// M04/M04 Q1026
  • 190030Z AUTO VRB02KT 0500 0450 R04/0650D FZFG VV/// M04/M04 Q1026
  • 190000Z AUTO 09002KT 3100 1300 R04/4200U BR VV/// M03/M03 Q1026
  • 182330Z AUTO 00000KT 0450 R04/0500N FZFG VV/// M03/M03 Q1027
  • 182300Z AUTO 20003KT 0750 0700 R04/0900N FZFG VV/// M02/M03 Q1027

TAF AMD TAF LFLP
Valid from the 18 at 15:00 until the 19 at 15:00 UTC


181536Z 1815/1915 22004KT 3000 BR BKN002
TEMPO 1815/1820 CAVOK
TEMPO 1815/1908 0300 FZFG VV///



MET'MAP, your aeronautical weather chart ! - Copyright ORBIFLY December 2007 - Disclaimer

ORBIFLY MET'MAP TEAM :

Programming & Development : Alexandra Zaïnal
Concept & original design : Baudouin d'Aumeries
Assistance for programming : Marc-Olivier Méhu
Technical & hardware support : Manuel Goepfert

Contact : metmap@orbifly.com




SOURCES & CREDITS :

   NOAA